Huvudsida
METAR-TAF:

METAR-TAF

Flygplatser :

Hemavan Tärnaby Airport

Hemavan, Sverige

latitud: 65-48-22N, longitud: 015-04-58E, höjd: 458 m

Aktuellt väderrapport

Denna rapport gjordes för 31 minuter sedan, klockan 09:20 UTC
Vind 4 kt från nordväst, varierande mellan väst och nord
Temperatur 12°C
Fuktighet 35%
Tryck 1032 hPa
Sikt 10 km eller mer

METAR: ESUT 270920Z AUTO 31004KT 260V360 9999 FEW045/// BKN098/// 12/M03 Q1032

Tid: 11:51 (09:51 UTC)


TAF: saknas

Aktuella väderrapporter och prognoser från 4000 flygplatser (METAR- och TAF-rapporter).

De tillgängliga stationerna syns som gula och röda prickar på kartan.

För musen över prickarna för att se namnen på stationerna.

Klicka sedan för att få väderrapporter och prognoser.

För att ändra kartan: Klicka på de gröna knapparna med ett svart kors på för att zooma in; den gröna knappen med ett streck på för att zooma ut; eller på de gröna pilarna för angränsande kartor.


METAR-TAF: